Mount Gilead, Ohio
Current Conditions -  °F | °C
As of 11:53 PM on Thursday 27 Nov 2014 (Local Time) from KMNN Reporting Station
Overcast Overcast  
Wind Chill: 17°   Ceiling: 1900
Heat Index: 27°   Visibility: 9mi
Dew Point: 21°   Wind: 12mph
Humidity: 78%   Direction: 300°WNW
Pressure: 30.3"   Gusts: NA
Location:  40.55°N, 82.83°W
Report Text: KMNN 280453Z AUTO 30010KT 9SM BKN019 BKN026 OVC060 M03/M06 A3030 RMK AO2 SNB09E20B36E48 SLP275 P0000 T10281061 400171028 TSNO
Loading
Personal Weather Stations






























Interactive Weather Map New forecast layout! Learn more

10-Day Weather Forecast

Advertisements
Track Severe Weather on mobile